createdAt,value
2018-07-05T00:00:35.875Z,56.22
2018-07-05T00:01:35.841Z,56.42
2018-07-05T00:02:35.826Z,56.02
2018-07-05T00:03:35.815Z,56.82
2018-07-05T00:04:35.806Z,56.12
2018-07-05T00:05:35.794Z,56.32
2018-07-05T00:06:35.803Z,56.72
2018-07-05T00:07:35.773Z,56.45
2018-07-05T00:08:35.760Z,56.52
2018-07-05T00:09:35.750Z,56.74
2018-07-05T00:10:35.740Z,56.92
2018-07-05T00:11:35.778Z,56.82
2018-07-05T00:12:35.720Z,56.92
2018-07-05T00:13:35.706Z,56.85
2018-07-05T00:14:35.698Z,56.72
2018-07-05T00:15:35.685Z,57.05
2018-07-05T00:16:35.677Z,56.95
2018-07-05T00:17:35.678Z,57.35
2018-07-05T00:18:35.651Z,57.24
2018-07-05T00:19:35.642Z,57.24
2018-07-05T00:20:35.633Z,57.15
2018-07-05T00:21:35.625Z,58.05
2018-07-05T00:22:35.625Z,58.05
2018-07-05T00:23:35.598Z,57.55
2018-07-05T00:24:35.588Z,57.68
2018-07-05T00:25:35.577Z,58.37
2018-07-05T00:26:35.567Z,58.48
2018-07-05T00:27:35.568Z,58.58
2018-07-05T00:28:35.544Z,58.48
2018-07-05T00:29:35.535Z,58.78
2018-07-05T00:30:35.521Z,58.68
2018-07-05T00:31:35.514Z,58.78
2018-07-05T00:32:35.526Z,58.78
2018-07-05T00:33:35.490Z,58.58
2018-07-05T00:34:35.483Z,58.58
2018-07-05T00:35:35.487Z,58.78
2018-07-05T00:36:35.459Z,58.87
2018-07-05T00:37:35.459Z,58.98
2018-07-05T00:38:35.467Z,59.58
2018-07-05T00:39:35.429Z,58.98
2018-07-05T00:40:35.414Z,59.31
2018-07-05T00:41:35.405Z,59.18
2018-07-05T00:42:35.394Z,59.70
2018-07-05T00:43:35.409Z,59.41
2018-07-05T00:44:35.376Z,60.11
2018-07-05T00:45:35.362Z,60.33
2018-07-05T00:46:35.348Z,60.84
2018-07-05T00:47:35.337Z,60.44
2018-07-05T00:48:35.336Z,61.07
2018-07-05T00:49:35.331Z,61.04
2018-07-05T00:50:35.305Z,61.07
2018-07-05T00:51:35.297Z,61.17
2018-07-05T00:52:35.285Z,61.57
2018-07-05T00:53:35.273Z,61.47
2018-07-05T00:54:35.276Z,61.47
2018-07-05T00:55:35.253Z,61.47
2018-07-05T00:56:35.257Z,62.27
2018-07-05T00:57:35.230Z,61.47
2018-07-05T00:58:35.222Z,61.47
2018-07-05T00:59:35.226Z,61.27
2018-07-05T01:00:35.200Z,61.36
2018-07-05T01:01:35.208Z,60.86
2018-07-05T01:02:35.183Z,60.97
2018-07-05T01:03:35.171Z,61.17
2018-07-05T01:04:35.155Z,61.27
2018-07-05T01:05:35.147Z,61.47
2018-07-05T01:06:35.133Z,61.57
2018-07-05T01:07:35.136Z,61.27
2018-07-05T01:08:35.112Z,61.47
2018-07-05T01:09:35.109Z,61.47
2018-07-05T01:10:35.112Z,61.57
2018-07-05T01:11:35.083Z,61.36
2018-07-05T01:12:35.128Z,61.47
2018-07-05T01:13:35.079Z,61.57
2018-07-05T01:14:35.049Z,61.77
2018-07-05T01:15:35.035Z,61.77
2018-07-05T01:16:35.025Z,61.50
2018-07-05T01:17:35.015Z,61.87
2018-07-05T01:18:35.003Z,61.60
2018-07-05T01:19:35.009Z,61.70
2018-07-05T01:20:34.981Z,62.17
2018-07-05T01:21:34.970Z,61.80
2018-07-05T01:22:34.961Z,61.80
2018-07-05T01:23:34.965Z,62.20
2018-07-05T01:24:34.938Z,61.87
2018-07-05T01:25:34.931Z,61.80
2018-07-05T01:26:34.920Z,62.30
2018-07-05T01:27:34.907Z,61.60
2018-07-05T01:28:34.914Z,62.00
2018-07-05T01:29:34.887Z,62.00
2018-07-05T01:30:34.874Z,62.00
2018-07-05T01:31:34.904Z,62.93
2018-07-05T01:32:34.853Z,62.40
2018-07-05T01:33:34.859Z,62.73
2018-07-05T01:34:34.831Z,62.63
2018-07-05T01:35:34.822Z,63.13
2018-07-05T01:36:34.822Z,62.93
2018-07-05T01:37:34.801Z,63.03
2018-07-05T01:38:34.797Z,63.33
2018-07-05T01:39:34.792Z,62.93
2018-07-05T01:40:34.769Z,62.93
2018-07-05T01:41:34.755Z,62.73
2018-07-05T01:42:34.754Z,62.93
2018-07-05T01:43:34.745Z,63.03
2018-07-05T01:44:34.723Z,62.93
2018-07-05T01:45:34.713Z,62.93
2018-07-05T01:46:34.722Z,62.73
2018-07-05T01:47:34.693Z,62.93
2018-07-05T01:48:34.681Z,62.83
2018-07-05T01:49:34.669Z,62.93
2018-07-05T01:50:34.658Z,62.93
2018-07-05T01:51:34.649Z,62.93
2018-07-05T01:52:34.653Z,62.83
2018-07-05T01:53:34.629Z,63.23
2018-07-05T01:54:34.616Z,63.03
2018-07-05T01:55:34.642Z,63.13
2018-07-05T01:56:34.597Z,63.33
2018-07-05T01:57:34.587Z,63.13
2018-07-05T01:58:34.573Z,63.53
2018-07-05T01:59:34.565Z,63.56
2018-07-05T02:00:34.554Z,63.96
2018-07-05T02:01:34.554Z,64.27
2018-07-05T02:02:34.537Z,64.40
2018-07-05T02:03:34.521Z,64.60
2018-07-05T02:04:34.512Z,64.60
2018-07-05T02:05:34.526Z,64.80
2018-07-05T02:06:34.491Z,64.90
2018-07-05T02:07:34.480Z,64.80
2018-07-05T02:08:34.471Z,64.90
2018-07-05T02:09:34.455Z,64.70
2018-07-05T02:10:34.444Z,64.90
2018-07-05T02:11:34.449Z,64.90
2018-07-05T02:12:34.428Z,64.90
2018-07-05T02:13:34.415Z,65.00
2018-07-05T02:14:34.487Z,64.80
2018-07-05T02:15:34.392Z,65.10
2018-07-05T02:16:34.402Z,65.00
2018-07-05T02:17:34.370Z,65.13
2018-07-05T02:18:34.364Z,65.20
2018-07-05T02:19:34.350Z,65.00
2018-07-05T02:20:34.359Z,65.20
2018-07-05T02:21:34.330Z,65.30
2018-07-05T02:22:34.321Z,65.30
2018-07-05T02:23:34.308Z,65.00
2018-07-05T02:24:34.297Z,65.50
2018-07-05T02:25:34.284Z,65.20
2018-07-05T02:26:34.289Z,65.10
2018-07-05T02:27:34.277Z,65.30
2018-07-05T02:28:34.252Z,65.50
2018-07-05T02:29:34.243Z,65.50
2018-07-05T02:30:34.232Z,65.64
2018-07-05T02:31:34.219Z,65.44
2018-07-05T02:32:34.223Z,65.94
2018-07-05T02:33:34.198Z,66.44
2018-07-05T02:34:34.209Z,66.54
2018-07-05T02:35:34.180Z,66.74
2018-07-05T02:36:34.169Z,66.27
2018-07-05T02:37:34.155Z,66.07
2018-07-05T02:38:34.146Z,66.77
2018-07-05T02:39:34.134Z,66.97
2018-07-05T02:40:34.143Z,67.68
2018-07-05T02:41:34.111Z,66.97
2018-07-05T02:42:34.105Z,67.58
2018-07-05T02:43:34.111Z,67.27
2018-07-05T02:44:34.079Z,66.97
2018-07-05T02:45:34.069Z,67.00
2018-07-05T02:46:34.064Z,66.97
2018-07-05T02:47:34.046Z,67.07
2018-07-05T02:48:34.036Z,67.18
2018-07-05T02:49:34.060Z,67.07
2018-07-05T02:50:34.016Z,66.97
2018-07-05T02:51:34.007Z,67.07
2018-07-05T02:52:34.001Z,67.07
2018-07-05T02:53:33.986Z,66.97
2018-07-05T02:54:33.971Z,67.18
2018-07-05T02:55:33.981Z,66.57
2018-07-05T02:56:33.950Z,66.77
2018-07-05T02:57:33.943Z,66.77
2018-07-05T02:58:33.960Z,67.68
2018-07-05T02:59:33.919Z,66.87
2018-07-05T03:00:33.910Z,67.07
2018-07-05T03:01:33.898Z,66.80
2018-07-05T03:02:33.890Z,67.61
2018-07-05T03:03:33.874Z,66.91
2018-07-05T03:04:33.904Z,67.61
2018-07-05T03:05:33.855Z,67.91
2018-07-05T03:06:33.845Z,67.78
2018-07-05T03:07:33.832Z,67.00
2018-07-05T03:08:33.821Z,67.61
2018-07-05T03:09:33.813Z,67.61
2018-07-05T03:10:33.814Z,66.71
2018-07-05T03:11:33.812Z,67.61
2018-07-05T03:12:33.779Z,67.71
2018-07-05T03:13:33.767Z,68.01
2018-07-05T03:14:33.758Z,67.71
2018-07-05T03:15:33.765Z,67.61
2018-07-05T03:16:33.740Z,68.11
2018-07-05T03:17:33.725Z,68.21
2018-07-05T03:18:33.717Z,68.31
2018-07-05T03:19:33.707Z,67.31
2018-07-05T03:20:33.735Z,68.01
2018-07-05T03:21:33.683Z,68.21
2018-07-05T03:22:33.674Z,67.41
2018-07-05T03:23:33.663Z,68.11
2018-07-05T03:24:33.648Z,68.21
2018-07-05T03:25:33.639Z,68.21
2018-07-05T03:26:33.646Z,68.11
2018-07-05T03:27:33.632Z,68.41
2018-07-05T03:28:33.609Z,68.31
2018-07-05T03:29:33.597Z,68.41
2018-07-05T03:30:33.584Z,68.41
2018-07-05T03:31:33.589Z,68.35
2018-07-05T03:32:33.563Z,68.41
2018-07-05T03:33:33.576Z,68.31
2018-07-05T03:34:33.545Z,68.51
2018-07-05T03:35:33.530Z,68.31
2018-07-05T03:36:33.522Z,68.31
2018-07-05T03:37:33.509Z,68.62
2018-07-05T03:38:33.500Z,68.31
2018-07-05T03:39:33.528Z,68.51
2018-07-05T03:40:33.479Z,68.44
2018-07-05T03:41:33.467Z,68.65
2018-07-05T03:42:33.458Z,68.82
2018-07-05T03:43:33.447Z,68.65
2018-07-05T03:44:33.436Z,68.71
2018-07-05T03:45:33.442Z,68.95
2018-07-05T03:46:33.412Z,68.82
2018-07-05T03:47:33.402Z,68.31
2018-07-05T03:48:33.411Z,68.91
2018-07-05T03:49:33.380Z,68.85
2018-07-05T03:50:33.372Z,68.85
2018-07-05T03:51:33.405Z,68.82
2018-07-05T03:52:33.350Z,68.85
2018-07-05T03:53:33.337Z,68.75
2018-07-05T03:54:33.330Z,68.85
2018-07-05T03:55:33.333Z,68.82
2018-07-05T03:56:33.306Z,68.71
2018-07-05T03:57:33.311Z,68.71
2018-07-05T03:58:33.286Z,68.21
2018-07-05T03:59:33.275Z,68.62
2018-07-05T04:00:33.266Z,68.51
2018-07-05T04:01:33.267Z,68.95
2018-07-05T04:02:33.253Z,68.85
2018-07-05T04:03:33.231Z,68.51
2018-07-05T04:04:33.240Z,68.62
2018-07-05T04:05:33.211Z,68.55
2018-07-05T04:06:33.211Z,68.62
2018-07-05T04:07:33.190Z,68.62
2018-07-05T04:08:33.176Z,70.06
2018-07-05T04:09:33.169Z,70.06
2018-07-05T04:10:33.158Z,69.85
2018-07-05T04:11:33.168Z,69.56
2018-07-05T04:12:33.164Z,69.72
2018-07-05T04:13:33.125Z,70.06
2018-07-05T04:14:33.118Z,69.12
2018-07-05T04:15:33.100Z,69.02
2018-07-05T04:16:33.092Z,69.02
2018-07-05T04:17:33.099Z,69.76
2018-07-05T04:18:33.068Z,69.85
2018-07-05T04:19:33.057Z,69.76
2018-07-05T04:20:33.049Z,69.65
2018-07-05T04:21:33.064Z,69.76
2018-07-05T04:22:33.029Z,69.56
2018-07-05T04:23:33.057Z,69.85
2018-07-05T04:24:33.007Z,69.82
2018-07-05T04:25:33.031Z,69.56
2018-07-05T04:26:32.982Z,69.62
2018-07-05T04:27:33.029Z,69.62
2018-07-05T04:28:32.961Z,69.72
2018-07-05T04:29:32.971Z,70.03
2018-07-05T04:30:32.941Z,68.91
2018-07-05T04:31:32.927Z,68.71
2018-07-05T04:32:32.917Z,68.71
2018-07-05T04:33:32.906Z,68.71
2018-07-05T04:34:32.898Z,68.62
2018-07-05T04:35:32.927Z,68.88
2018-07-05T04:36:32.877Z,68.71
2018-07-05T04:37:32.862Z,68.59
2018-07-05T04:38:32.852Z,68.48
2018-07-05T04:39:32.848Z,68.91
2018-07-05T04:40:32.833Z,68.88
2018-07-05T04:41:32.836Z,68.28
2018-07-05T04:42:32.848Z,68.68
2018-07-05T04:43:32.800Z,68.78
2018-07-05T04:44:32.842Z,68.68
2018-07-05T04:45:32.797Z,68.18
2018-07-05T04:46:32.766Z,68.48
2018-07-05T04:47:32.771Z,68.38
2018-07-05T04:48:32.770Z,68.38
2018-07-05T04:49:32.735Z,68.48
2018-07-05T04:50:32.796Z,68.59
2018-07-05T04:51:32.713Z,68.15
2018-07-05T04:52:32.703Z,67.94
2018-07-05T04:53:32.719Z,68.65
2018-07-05T04:54:32.695Z,67.98
2018-07-05T04:55:32.785Z,68.48
2018-07-05T04:56:32.659Z,68.59
2018-07-05T04:57:32.648Z,68.45
2018-07-05T04:58:32.712Z,68.15
2018-07-05T04:59:32.628Z,68.45
2018-07-05T05:00:32.664Z,68.45
2018-07-05T05:01:32.607Z,68.25
2018-07-05T05:02:32.603Z,68.48
2018-07-05T05:03:32.581Z,68.45
2018-07-05T05:04:32.572Z,68.55
2018-07-05T05:05:32.574Z,68.45
2018-07-05T05:06:32.550Z,68.55
2018-07-05T05:07:32.541Z,68.25
2018-07-05T05:08:32.529Z,68.25
2018-07-05T05:09:32.530Z,68.45
2018-07-05T05:10:32.536Z,68.15
2018-07-05T05:11:32.494Z,68.25
2018-07-05T05:12:32.488Z,68.21
2018-07-05T05:13:32.473Z,67.91
2018-07-05T05:14:32.465Z,68.02
2018-07-05T05:15:32.454Z,68.21
2018-07-05T05:16:32.457Z,67.51
2018-07-05T05:17:32.428Z,67.01
2018-07-05T05:18:32.420Z,67.11
2018-07-05T05:19:32.407Z,67.51
2018-07-05T05:20:32.399Z,67.61
2018-07-05T05:21:32.402Z,68.02
2018-07-05T05:22:32.381Z,67.51
2018-07-05T05:23:32.364Z,66.67
2018-07-05T05:24:32.353Z,67.01
2018-07-05T05:25:32.345Z,66.47
2018-07-05T05:26:32.345Z,67.58
2018-07-05T05:27:32.347Z,67.08
2018-07-05T05:28:32.309Z,67.25
2018-07-05T05:29:32.298Z,67.05
2018-07-05T05:30:32.291Z,66.55
2018-07-05T05:31:32.277Z,66.44
2018-07-05T05:32:32.266Z,66.35
2018-07-05T05:33:32.289Z,65.84
2018-07-05T05:34:32.251Z,65.74
2018-07-05T05:35:32.233Z,65.74
2018-07-05T05:36:32.226Z,65.21
2018-07-05T05:37:32.233Z,65.41
2018-07-05T05:38:32.203Z,65.01
2018-07-05T05:39:32.193Z,64.91
2018-07-05T05:40:32.179Z,64.68
2018-07-05T05:41:32.168Z,64.98
2018-07-05T05:42:32.158Z,64.88
2018-07-05T05:43:32.163Z,64.37
2018-07-05T05:44:32.138Z,64.04
2018-07-05T05:45:32.127Z,63.64
2018-07-05T05:46:32.137Z,63.87
2018-07-05T05:47:32.105Z,63.78
2018-07-05T05:48:32.092Z,63.84
2018-07-05T05:49:32.082Z,63.57
2018-07-05T05:50:32.071Z,63.54
2018-07-05T05:51:32.061Z,63.64
2018-07-05T05:52:32.070Z,62.94
2018-07-05T05:53:32.055Z,63.31
2018-07-05T05:54:32.031Z,63.21
2018-07-05T05:55:32.040Z,63.39
2018-07-05T05:56:32.007Z,62.38
2018-07-05T05:57:31.994Z,61.58
2018-07-05T05:58:31.984Z,62.18
2018-07-05T05:59:31.973Z,62.15
2018-07-05T06:00:31.965Z,62.15
2018-07-05T06:01:31.981Z,61.82
2018-07-05T06:02:31.942Z,60.82
2018-07-05T06:03:31.929Z,60.82
2018-07-05T06:04:31.920Z,61.09
2018-07-05T06:05:31.911Z,60.89
2018-07-05T06:06:31.898Z,59.39
2018-07-05T06:07:31.938Z,59.30
2018-07-05T06:08:31.877Z,59.79
2018-07-05T06:09:31.866Z,59.39
2018-07-05T06:10:31.853Z,60.10
2018-07-05T06:11:31.881Z,59.19
2018-07-05T06:12:31.835Z,59.69
2018-07-05T06:13:31.823Z,59.27
2018-07-05T06:14:31.820Z,59.77
2018-07-05T06:15:31.823Z,59.14
2018-07-05T06:16:31.790Z,59.44
2018-07-05T06:17:31.797Z,58.81
2018-07-05T06:18:31.845Z,58.61
2018-07-05T06:19:31.759Z,57.88
2018-07-05T06:20:31.750Z,57.09
2018-07-05T06:21:31.738Z,57.18
2018-07-05T06:22:31.743Z,56.98
2018-07-05T06:23:31.719Z,56.98
2018-07-05T06:24:31.706Z,56.79
2018-07-05T06:25:31.732Z,57.06
2018-07-05T06:26:31.686Z,56.76
2018-07-05T06:27:31.709Z,56.26
2018-07-05T06:28:31.669Z,55.93
2018-07-05T06:29:31.661Z,56.33
2018-07-05T06:30:31.648Z,56.30
2018-07-05T06:31:31.637Z,56.10
2018-07-05T06:32:31.639Z,55.01
2018-07-05T06:33:31.622Z,55.58
2018-07-05T06:34:31.603Z,54.88
2018-07-05T06:35:31.594Z,54.61
2018-07-05T06:36:31.585Z,54.38
2018-07-05T06:37:31.582Z,54.08
2018-07-05T06:38:31.579Z,54.28
2018-07-05T06:39:31.605Z,54.58
2018-07-05T06:40:31.542Z,54.56
2018-07-05T06:41:31.532Z,53.66
2018-07-05T06:42:31.575Z,53.56
2018-07-05T06:43:31.518Z,54.06
2018-07-05T06:44:31.496Z,53.76
2018-07-05T06:45:31.489Z,53.86
2018-07-05T06:46:31.477Z,53.66
2018-07-05T06:47:31.484Z,53.94
2018-07-05T06:48:31.480Z,53.74
2018-07-05T06:49:31.451Z,52.44
2018-07-05T06:50:31.435Z,53.83
2018-07-05T06:51:31.422Z,52.91
2018-07-05T06:52:31.410Z,52.02
2018-07-05T06:53:31.401Z,53.31
2018-07-05T06:54:31.402Z,52.42
2018-07-05T06:55:31.384Z,51.82
2018-07-05T06:56:31.368Z,52.29
2018-07-05T06:57:31.356Z,52.09
2018-07-05T06:58:31.346Z,51.77
2018-07-05T06:59:31.346Z,52.19
2018-07-05T07:00:31.322Z,50.68
2018-07-05T07:01:31.353Z,50.75
2018-07-05T07:02:31.301Z,50.68
2018-07-05T07:03:31.333Z,51.35
2018-07-05T07:04:31.290Z,50.33
2018-07-05T07:05:31.318Z,50.13
2018-07-05T07:06:31.258Z,49.61
2018-07-05T07:07:31.264Z,49.49
2018-07-05T07:08:31.238Z,49.07
2018-07-05T07:09:31.222Z,48.85
2018-07-05T07:10:31.214Z,48.53
2018-07-05T07:11:31.265Z,48.43
2018-07-05T07:12:31.227Z,47.22
2018-07-05T07:13:31.287Z,47.29
2018-07-05T07:14:31.171Z,46.66
2018-07-05T07:15:31.174Z,45.23
2018-07-05T07:16:31.149Z,44.00
2018-07-05T07:17:31.141Z,44.02
2018-07-05T07:18:31.144Z,44.02
2018-07-05T07:19:31.140Z,44.00
2018-07-05T07:20:31.122Z,43.80
2018-07-05T07:21:31.134Z,43.80
2018-07-05T07:22:31.101Z,43.92
2018-07-05T07:23:31.078Z,44.54
2018-07-05T07:24:31.064Z,45.23
2018-07-05T07:25:31.136Z,44.85
2018-07-05T07:26:31.044Z,45.15
2018-07-05T07:27:31.033Z,44.34
2018-07-05T07:28:31.026Z,43.65
2018-07-05T07:29:31.026Z,43.92
2018-07-05T07:30:31.005Z,43.82
2018-07-05T07:31:31.026Z,43.21
2018-07-05T07:32:30.983Z,42.91
2018-07-05T07:33:30.973Z,43.01
2018-07-05T07:34:30.982Z,42.79
2018-07-05T07:35:30.952Z,43.70
2018-07-05T07:36:30.939Z,43.17
2018-07-05T07:37:30.938Z,42.18
2018-07-05T07:38:30.918Z,42.69
2018-07-05T07:39:30.908Z,44.20
2018-07-05T07:40:30.909Z,44.32
2018-07-05T07:41:30.885Z,45.03
2018-07-05T07:42:30.888Z,45.42
2018-07-05T07:43:30.866Z,45.25
2018-07-05T07:44:30.854Z,45.05
2018-07-05T07:45:30.999Z,45.76
2018-07-05T07:46:30.836Z,46.26
2018-07-05T07:47:30.822Z,46.36
2018-07-05T07:48:30.814Z,45.76
2018-07-05T07:49:30.801Z,45.76
2018-07-05T07:50:30.791Z,43.70
2018-07-05T07:51:30.800Z,42.04
2018-07-05T07:52:30.772Z,40.90
2018-07-05T07:53:30.764Z,39.95
2018-07-05T07:54:30.748Z,38.15
2018-07-05T07:55:30.742Z,37.74
2018-07-05T07:56:30.731Z,36.92
2018-07-05T07:57:30.737Z,36.71
2018-07-05T07:58:30.752Z,37.49
2018-07-05T07:59:30.699Z,37.39
2018-07-05T08:00:30.687Z,37.37
2018-07-05T08:01:30.676Z,37.18
2018-07-05T08:02:30.678Z,36.59
2018-07-05T08:03:30.654Z,37.37
2018-07-05T08:04:30.644Z,36.88
2018-07-05T08:05:30.693Z,36.18
2018-07-05T08:06:30.651Z,36.87
2018-07-05T08:07:30.616Z,36.28
2018-07-05T08:08:30.647Z,35.50
2018-07-05T08:09:30.595Z,36.07
2018-07-05T08:10:30.585Z,35.79
2018-07-05T08:11:30.573Z,36.16
2018-07-05T08:12:30.579Z,35.48
2018-07-05T08:13:30.560Z,36.55
2018-07-05T08:14:30.541Z,34.80
2018-07-05T08:15:30.565Z,35.99
2018-07-05T08:16:30.586Z,35.68
2018-07-05T08:17:30.544Z,35.97
2018-07-05T08:18:30.516Z,35.48
2018-07-05T08:19:30.524Z,35.28
2018-07-05T08:20:30.535Z,35.60
2018-07-05T08:21:30.493Z,36.57
2018-07-05T08:22:30.460Z,36.49
2018-07-05T08:23:30.481Z,36.28
2018-07-05T08:24:30.444Z,36.08
2018-07-05T08:25:30.449Z,36.28
2018-07-05T08:26:30.424Z,35.99
2018-07-05T08:27:30.412Z,35.40
2018-07-05T08:28:30.400Z,35.50
2018-07-05T08:29:30.413Z,35.61
2018-07-05T08:30:30.389Z,36.61
2018-07-05T08:31:30.466Z,36.90
2018-07-05T08:32:30.359Z,36.82
2018-07-05T08:33:30.352Z,37.94
2018-07-05T08:34:30.342Z,37.84
2018-07-05T08:35:30.332Z,38.54
2018-07-05T08:36:30.374Z,38.84
2018-07-05T08:37:30.314Z,37.94
2018-07-05T08:38:30.305Z,38.60
2018-07-05T08:39:30.293Z,39.41
2018-07-05T08:40:30.279Z,38.39
2018-07-05T08:41:30.287Z,38.29
2018-07-05T08:42:30.282Z,38.41
2018-07-05T08:43:30.249Z,39.62
2018-07-05T08:44:30.239Z,38.93
2018-07-05T08:45:30.229Z,38.53
2018-07-05T08:46:30.252Z,38.23
2018-07-05T08:47:30.211Z,38.23
2018-07-05T08:48:30.199Z,38.31
2018-07-05T08:49:30.239Z,38.12
2018-07-05T08:50:30.234Z,38.88
2018-07-05T08:51:30.171Z,37.41
2018-07-05T08:52:30.177Z,37.19
2018-07-05T08:53:30.166Z,37.61
2018-07-05T08:54:30.145Z,36.96
2018-07-05T08:55:30.131Z,37.07
2018-07-05T08:56:30.117Z,38.27
2018-07-05T08:57:30.166Z,39.07
2018-07-05T08:58:30.140Z,39.15
2018-07-05T08:59:30.088Z,38.56
2018-07-05T09:00:30.112Z,38.13
2018-07-05T09:01:30.070Z,37.54
2018-07-05T09:02:30.058Z,37.15
2018-07-05T09:03:30.092Z,36.55
2018-07-05T09:04:30.040Z,37.45
2018-07-05T09:05:30.027Z,37.45
2018-07-05T09:06:30.019Z,37.96
2018-07-05T09:07:30.075Z,36.68
2018-07-05T09:08:30.042Z,38.39
2018-07-05T09:09:30.001Z,38.07
2018-07-05T09:10:29.977Z,37.76
2018-07-05T09:11:29.969Z,37.54
2018-07-05T09:12:29.966Z,37.17
2018-07-05T09:13:29.949Z,38.46
2018-07-05T09:14:29.955Z,37.58
2018-07-05T09:15:29.927Z,37.46
2018-07-05T09:16:29.916Z,37.96
2018-07-05T09:17:29.943Z,37.56
2018-07-05T09:18:29.986Z,37.56
2018-07-05T09:19:29.893Z,36.96
2018-07-05T09:20:29.899Z,37.43
2018-07-05T09:21:29.872Z,36.65
2018-07-05T09:22:29.860Z,36.80
2018-07-05T09:23:30.034Z,37.62
2018-07-05T09:24:29.836Z,38.50
2018-07-05T09:25:29.827Z,38.40
2018-07-05T09:26:29.835Z,38.31
2018-07-05T09:27:29.823Z,37.72
2018-07-05T09:28:29.798Z,38.48
2018-07-05T09:29:29.789Z,38.58
2018-07-05T09:30:29.780Z,38.68
2018-07-05T09:31:29.765Z,37.88
2018-07-05T09:32:29.765Z,37.46
2018-07-05T09:33:29.764Z,37.15
2018-07-05T09:34:29.738Z,36.55
2018-07-05T09:35:29.729Z,35.75
2018-07-05T09:36:29.724Z,36.12
2018-07-05T09:37:29.744Z,35.73
2018-07-05T09:38:29.696Z,34.94
2018-07-05T09:39:29.685Z,34.94
2018-07-05T09:40:29.675Z,34.84
2018-07-05T09:41:29.666Z,35.44
2018-07-05T09:42:29.655Z,35.44
2018-07-05T09:43:29.660Z,35.42
2018-07-05T09:44:29.639Z,34.84
2018-07-05T09:45:29.626Z,35.13
2018-07-05T09:46:29.617Z,34.74
2018-07-05T09:47:29.610Z,35.42
2018-07-05T09:48:29.625Z,35.42
2018-07-05T09:49:29.594Z,35.13
2018-07-05T09:50:29.578Z,34.83
2018-07-05T09:51:29.578Z,34.81
2018-07-05T09:52:29.627Z,35.79
2018-07-05T09:53:29.565Z,34.70
2018-07-05T09:54:29.538Z,34.99
2018-07-05T09:55:29.529Z,34.99
2018-07-05T09:56:29.519Z,34.81
2018-07-05T09:57:29.511Z,35.50
2018-07-05T09:58:29.592Z,34.72
2018-07-05T09:59:29.493Z,34.81
2018-07-05T10:00:29.521Z,34.81
2018-07-05T10:01:29.471Z,34.74
2018-07-05T10:02:29.463Z,34.83
2018-07-05T10:03:29.493Z,35.53
2018-07-05T10:04:29.550Z,35.44
2018-07-05T10:05:29.434Z,35.22
2018-07-05T10:06:29.423Z,35.81
2018-07-05T10:07:29.471Z,35.40
2018-07-05T10:08:29.405Z,35.11
2018-07-05T10:09:29.406Z,34.89
2018-07-05T10:10:29.400Z,34.99
2018-07-05T10:11:29.374Z,34.89
2018-07-05T10:12:29.417Z,35.25
2018-07-05T10:13:29.600Z,34.67
2018-07-05T10:14:29.360Z,34.47
2018-07-05T10:15:29.350Z,33.41
2018-07-05T10:16:29.355Z,33.31
2018-07-05T10:17:29.328Z,32.65
2018-07-05T10:18:29.304Z,33.94
2018-07-05T10:19:29.300Z,33.14
2018-07-05T10:20:29.313Z,33.53
2018-07-05T10:21:29.307Z,32.65
2018-07-05T10:22:29.268Z,33.62
2018-07-05T10:23:29.257Z,32.86
2018-07-05T10:24:29.249Z,33.33
2018-07-05T10:25:29.265Z,32.84
2018-07-05T10:26:29.237Z,33.62
2018-07-05T10:27:29.221Z,33.33
2018-07-05T10:28:29.232Z,33.53
2018-07-05T10:29:29.199Z,33.33
2018-07-05T10:30:29.189Z,33.62
2018-07-05T10:31:29.187Z,33.80
2018-07-05T10:32:29.168Z,33.40
2018-07-05T10:33:29.156Z,33.31
2018-07-05T10:34:29.166Z,33.70
2018-07-05T10:35:29.138Z,32.65
2018-07-05T10:36:29.215Z,33.62
2018-07-05T10:37:29.121Z,33.33
2018-07-05T10:38:29.111Z,33.33
2018-07-05T10:39:29.102Z,33.53
2018-07-05T10:40:29.105Z,33.92
2018-07-05T10:41:29.093Z,33.62
2018-07-05T10:42:29.099Z,33.41
2018-07-05T10:43:29.078Z,33.89
2018-07-05T10:44:29.107Z,32.42
2018-07-05T10:45:29.048Z,33.01
2018-07-05T10:46:29.034Z,33.20
2018-07-05T10:47:29.022Z,32.81
2018-07-05T10:48:29.032Z,33.50
2018-07-05T10:49:29.004Z,32.81
2018-07-05T10:50:29.034Z,33.09
2018-07-05T10:51:28.985Z,32.81
2018-07-05T10:52:28.976Z,33.58
2018-07-05T10:53:28.964Z,33.38
2018-07-05T10:54:28.971Z,33.48
2018-07-05T10:55:28.947Z,32.78
2018-07-05T10:56:28.935Z,32.31
2018-07-05T10:57:28.929Z,32.11
2018-07-05T10:58:28.916Z,33.20
2018-07-05T10:59:28.906Z,33.11
2018-07-05T11:00:28.925Z,33.04
2018-07-05T11:01:28.885Z,34.54
2018-07-05T11:02:28.877Z,34.21
2018-07-05T11:03:28.867Z,33.61
2018-07-05T11:04:28.861Z,32.91
2018-07-05T11:05:28.850Z,32.60
2018-07-05T11:06:28.859Z,32.99
2018-07-05T11:07:28.878Z,33.18
2018-07-05T11:08:28.821Z,33.48
2018-07-05T11:09:28.811Z,33.09
2018-07-05T11:10:28.805Z,32.89
2018-07-05T11:11:28.793Z,32.89
2018-07-05T11:12:28.791Z,33.17
2018-07-05T11:13:28.821Z,31.80
2018-07-05T11:14:28.797Z,33.07
2018-07-05T11:15:28.751Z,31.90
2018-07-05T11:16:28.758Z,32.48
2018-07-05T11:17:28.844Z,31.90
2018-07-05T11:18:28.750Z,32.48
2018-07-05T11:19:28.719Z,32.47
2018-07-05T11:20:28.706Z,32.37
2018-07-05T11:21:28.698Z,32.47
2018-07-05T11:22:28.701Z,31.30
2018-07-05T11:23:28.678Z,32.11
2018-07-05T11:24:28.690Z,32.31
2018-07-05T11:25:28.675Z,33.38
2018-07-05T11:26:28.654Z,33.11
2018-07-05T11:27:28.686Z,33.53
2018-07-05T11:28:28.634Z,33.92
2018-07-05T11:29:28.624Z,32.82
2018-07-05T11:30:28.618Z,33.80
2018-07-05T11:31:28.606Z,32.71
2018-07-05T11:32:28.604Z,33.38
2018-07-05T11:33:28.613Z,33.07
2018-07-05T11:34:28.589Z,32.19
2018-07-05T11:35:28.571Z,33.18
2018-07-05T11:36:28.573Z,33.01
2018-07-05T11:37:28.556Z,33.62
2018-07-05T11:38:28.540Z,34.03
2018-07-05T11:39:28.646Z,34.14
2018-07-05T11:40:28.547Z,33.64
2018-07-05T11:41:28.514Z,34.33
2018-07-05T11:42:28.553Z,33.53
2018-07-05T11:43:28.494Z,33.89
2018-07-05T11:44:28.480Z,33.30
2018-07-05T11:45:28.483Z,32.89
2018-07-05T11:46:28.461Z,32.60
2018-07-05T11:47:28.450Z,32.58
2018-07-05T11:48:28.445Z,32.37
2018-07-05T11:49:28.447Z,32.37
2018-07-05T11:50:28.468Z,33.07
2018-07-05T11:51:28.480Z,33.09
2018-07-05T11:52:28.404Z,33.20
2018-07-05T11:53:28.394Z,32.63
2018-07-05T11:54:28.402Z,33.53
2018-07-05T11:55:28.377Z,34.13
2018-07-05T11:56:28.425Z,34.64
2018-07-05T11:57:28.356Z,33.72
2018-07-05T11:58:28.416Z,33.31
2018-07-05T11:59:28.342Z,33.59
2018-07-05T12:00:28.369Z,33.38
2018-07-05T12:01:28.336Z,33.75
2018-07-05T12:02:28.365Z,32.08
2018-07-05T12:03:28.296Z,31.30
2018-07-05T12:04:28.289Z,31.90
2018-07-05T12:05:28.295Z,32.32
2018-07-05T12:06:28.267Z,32.92
2018-07-05T12:07:28.302Z,33.41
2018-07-05T12:08:28.246Z,32.95
2018-07-05T12:09:28.278Z,33.14
2018-07-05T12:10:28.230Z,32.84
2018-07-05T12:11:28.234Z,33.41
2018-07-05T12:12:28.224Z,32.82
2018-07-05T12:13:28.289Z,32.94
2018-07-05T12:14:28.189Z,32.94
2018-07-05T12:15:28.179Z,32.92
2018-07-05T12:16:28.169Z,32.91
2018-07-05T12:17:28.175Z,32.71
2018-07-05T12:18:28.196Z,32.01
2018-07-05T12:19:28.181Z,32.01
2018-07-05T12:20:28.131Z,31.70
2018-07-05T12:21:28.125Z,32.60
2018-07-05T12:22:28.116Z,32.01
2018-07-05T12:23:28.125Z,32.71
2018-07-05T12:24:28.093Z,33.02
2018-07-05T12:25:28.085Z,33.14
2018-07-05T12:26:28.072Z,33.45
2018-07-05T12:27:28.063Z,34.36
2018-07-05T12:28:28.067Z,34.77
2018-07-05T12:29:28.050Z,35.08
2018-07-05T12:30:28.033Z,34.80
2018-07-05T12:31:28.023Z,34.80
2018-07-05T12:32:28.147Z,34.90
2018-07-05T12:33:28.068Z,35.68
2018-07-05T12:34:27.993Z,34.81
2018-07-05T12:35:27.997Z,35.37
2018-07-05T12:36:27.977Z,34.77
2018-07-05T12:37:27.962Z,35.24
2018-07-05T12:38:27.980Z,34.08
2018-07-05T12:39:27.979Z,34.67
2018-07-05T12:40:27.934Z,35.44
2018-07-05T12:41:27.922Z,34.36
2018-07-05T12:42:27.915Z,34.26
2018-07-05T12:43:28.001Z,35.16
2018-07-05T12:44:27.909Z,34.49
2018-07-05T12:45:27.881Z,34.59
2018-07-05T12:46:27.915Z,35.00
2018-07-05T12:47:27.880Z,34.61
2018-07-05T12:48:27.916Z,34.98
2018-07-05T12:49:27.861Z,34.98
2018-07-05T12:50:27.833Z,33.98
2018-07-05T12:51:27.823Z,34.38
2018-07-05T12:52:27.811Z,34.67